Time,TemperatureF,DewpointF,PressureIn,WindDirection,WindDirectionDegrees,WindSpeedMPH,WindSpeedGustMPH,Humidity,HourlyPrecipIn,Conditions,Clouds,dailyrainin,SoftwareType,DateUTC
2013-05-23 00:01:00,66.5,65.3,29.67,SSW,204,0.0,0.0,96,0.00,,,0.00,Wunderground v.1.15,2013-05-23 04:01:00,
2013-05-23 00:04:00,66.4,65.5,29.67,SSW,204,0.0,0.0,97,0.00,,,0.00,Wunderground v.1.15,2013-05-23 04:04:00,
2013-05-23 00:05:00,66.4,65.5,29.66,SSW,204,0.0,0.0,97,0.00,,,0.00,Wunderground v.1.15,2013-05-23 04:05:00,
2013-05-23 00:07:00,66.4,65.5,29.66,SSW,204,0.0,0.0,97,0.00,,,0.00,Wunderground v.1.15,2013-05-23 04:07:00,
2013-05-23 00:08:00,66.4,65.5,29.66,SSW,204,0.0,0.0,97,0.00,,,0.00,Wunderground v.1.15,2013-05-23 04:08:00,
2013-05-23 00:13:00,66.4,65.5,29.66,SSW,204,0.0,0.0,97,0.00,,,0.00,Wunderground v.1.15,2013-05-23 04:13:00,
2013-05-23 00:18:00,66.4,65.5,29.66,SSW,204,0.0,0.0,97,0.00,,,0.00,Wunderground v.1.15,2013-05-23 04:18:00,
2013-05-23 00:23:00,66.5,65.6,29.66,WSW,252,0.0,0.0,97,0.00,,,0.00,Wunderground v.1.15,2013-05-23 04:23:00,
2013-05-23 00:29:00,66.5,65.6,29.67,South,180,2.0,2.0,97,0.00,,,0.00,Wunderground v.1.15,2013-05-23 04:29:00,
2013-05-23 00:34:00,66.6,65.4,29.67,SSW,207,3.0,3.0,96,0.00,,,0.00,Wunderground v.1.15,2013-05-23 04:34:00,
2013-05-23 00:39:00,66.7,65.5,29.67,SSW,207,0.0,3.0,96,0.00,,,0.00,Wunderground v.1.15,2013-05-23 04:39:00,
2013-05-23 00:44:00,66.9,65.4,29.67,South,184,0.0,4.0,95,0.00,,,0.00,Wunderground v.1.15,2013-05-23 04:44:00,
2013-05-23 00:50:00,67.1,65.3,29.67,SW,228,0.0,0.0,94,0.00,,,0.00,Wunderground v.1.15,2013-05-23 04:50:00,
2013-05-23 00:55:00,67.1,65.3,29.67,SW,227,0.0,1.0,94,0.00,,,0.00,Wunderground v.1.15,2013-05-23 04:55:00,
2013-05-23 01:00:00,67.2,65.1,29.67,SW,217,0.0,0.0,93,0.00,,,0.00,Wunderground v.1.15,2013-05-23 05:00:00,
2013-05-23 01:05:00,67.5,65.1,29.67,SSW,199,0.0,2.0,92,0.00,,,0.00,Wunderground v.1.15,2013-05-23 05:05:00,
2013-05-23 01:10:00,68.1,64.7,29.67,WSW,254,4.0,4.0,89,0.00,,,0.00,Wunderground v.1.15,2013-05-23 05:10:00,
2013-05-23 01:15:00,68.6,64.9,29.67,South,169,3.0,4.0,88,0.00,,,0.00,Wunderground v.1.15,2013-05-23 05:15:00,
2013-05-23 01:20:00,69.0,64.3,29.67,WSW,238,1.0,2.0,85,0.00,,,0.00,Wunderground v.1.15,2013-05-23 05:20:00,
2013-05-23 01:26:00,69.2,64.5,29.67,WNW,292,3.0,3.0,85,0.00,,,0.00,Wunderground v.1.15,2013-05-23 05:26:00,
2013-05-23 01:31:00,69.4,64.0,29.67,WSW,244,0.0,2.0,83,0.00,,,0.00,Wunderground v.1.15,2013-05-23 05:31:00,
2013-05-23 01:37:00,69.9,64.2,29.67,SSW,209,0.0,5.0,82,0.00,,,0.00,Wunderground v.1.15,2013-05-23 05:37:00,
2013-05-23 01:42:00,70.1,64.0,29.67,WSW,257,2.0,3.0,81,0.00,,,0.00,Wunderground v.1.15,2013-05-23 05:42:00,
2013-05-23 01:47:00,70.3,64.5,29.67,WSW,238,3.0,3.0,82,0.00,,,0.00,Wunderground v.1.15,2013-05-23 05:47:00,
2013-05-23 01:52:00,70.4,64.6,29.66,WSW,253,1.0,3.0,82,0.00,,,0.00,Wunderground v.1.15,2013-05-23 05:52:00,
2013-05-23 01:57:00,70.2,64.1,29.66,South,178,3.0,4.0,81,0.00,,,0.00,Wunderground v.1.15,2013-05-23 05:57:00,
2013-05-23 02:02:00,70.4,64.3,29.66,West,277,1.0,3.0,81,0.00,,,0.00,Wunderground v.1.15,2013-05-23 06:02:00,
2013-05-23 02:07:00,70.6,64.5,29.67,SSW,202,0.0,6.0,81,0.00,,,0.00,Wunderground v.1.15,2013-05-23 06:07:00,
2013-05-23 02:12:00,70.4,64.3,29.67,WSW,257,1.0,2.0,81,0.00,,,0.00,Wunderground v.1.15,2013-05-23 06:12:00,
2013-05-23 02:17:00,70.3,63.8,29.67,SW,229,1.0,8.0,80,0.00,,,0.00,Wunderground v.1.15,2013-05-23 06:17:00,
2013-05-23 02:22:00,70.5,64.0,29.67,South,191,3.0,3.0,80,0.00,,,0.00,Wunderground v.1.15,2013-05-23 06:22:00,
2013-05-23 02:27:00,70.6,63.8,29.67,WSW,249,3.0,3.0,79,0.00,,,0.00,Wunderground v.1.15,2013-05-23 06:27:00,
2013-05-23 02:32:00,70.7,63.9,29.66,West,279,1.0,3.0,79,0.00,,,0.00,Wunderground v.1.15,2013-05-23 06:32:00,
2013-05-23 02:37:00,70.6,64.1,29.66,SW,219,2.0,5.0,80,0.00,,,0.00,Wunderground v.1.15,2013-05-23 06:37:00,
2013-05-23 02:42:00,70.6,63.4,29.66,SW,219,0.0,3.0,78,0.00,,,0.00,Wunderground v.1.15,2013-05-23 06:42:00,
2013-05-23 02:47:00,70.3,63.5,29.66,SSW,192,0.0,3.0,79,0.00,,,0.00,Wunderground v.1.15,2013-05-23 06:47:00,
2013-05-23 02:52:00,70.3,63.8,29.66,SW,229,0.0,1.0,80,0.00,,,0.00,Wunderground v.1.15,2013-05-23 06:52:00,
2013-05-23 02:57:00,70.4,63.2,29.66,WSW,246,0.0,6.0,78,0.00,,,0.00,Wunderground v.1.15,2013-05-23 06:57:00,
2013-05-23 03:02:00,70.4,63.2,29.66,West,277,2.0,5.0,78,0.00,,,0.00,Wunderground v.1.15,2013-05-23 07:02:00,
2013-05-23 03:07:00,70.6,63.4,29.66,SW,229,2.0,5.0,78,0.00,,,0.00,Wunderground v.1.15,2013-05-23 07:07:00,
2013-05-23 03:12:00,70.6,63.8,29.67,SW,224,1.0,6.0,79,0.00,,,0.00,Wunderground v.1.15,2013-05-23 07:12:00,
2013-05-23 03:17:00,70.6,63.8,29.67,SSW,198,1.0,6.0,79,0.00,,,0.00,Wunderground v.1.15,2013-05-23 07:17:00,
2013-05-23 03:22:00,70.6,63.0,29.67,West,278,0.0,5.0,77,0.00,,,0.00,Wunderground v.1.15,2013-05-23 07:22:00,
2013-05-23 03:27:00,70.6,63.4,29.67,SW,227,3.0,5.0,78,0.00,,,0.00,Wunderground v.1.15,2013-05-23 07:27:00,
2013-05-23 03:32:00,70.7,63.9,29.67,WSW,240,1.0,7.0,79,0.00,,,0.00,Wunderground v.1.15,2013-05-23 07:32:00,
2013-05-23 03:37:00,70.6,63.0,29.67,SW,229,1.0,7.0,77,0.00,,,0.00,Wunderground v.1.15,2013-05-23 07:37:00,
2013-05-23 03:42:00,70.6,63.4,29.67,SSW,200,1.0,8.0,78,0.00,,,0.00,Wunderground v.1.15,2013-05-23 07:42:00,
2013-05-23 03:47:00,70.7,63.1,29.67,West,268,3.0,8.0,77,0.00,,,0.00,Wunderground v.1.15,2013-05-23 07:47:00,
2013-05-23 03:52:00,70.8,63.2,29.67,SW,228,0.0,3.0,77,0.00,,,0.00,Wunderground v.1.15,2013-05-23 07:52:00,
2013-05-23 03:57:00,70.8,63.2,29.67,West,265,0.0,5.0,77,0.00,,,0.00,Wunderground v.1.15,2013-05-23 07:57:00,
2013-05-23 04:03:00,70.7,63.1,29.67,WSW,255,0.0,4.0,77,0.00,,,0.00,Wunderground v.1.15,2013-05-23 08:03:00,
2013-05-23 04:08:00,70.6,63.0,29.67,WSW,255,1.0,4.0,77,0.00,,,0.00,Wunderground v.1.15,2013-05-23 08:08:00,
2013-05-23 04:13:00,70.5,63.7,29.67,SW,233,0.0,3.0,79,0.00,,,0.00,Wunderground v.1.15,2013-05-23 08:13:00,
2013-05-23 04:18:00,70.5,63.3,29.67,SW,219,3.0,4.0,78,0.00,,,0.00,Wunderground v.1.15,2013-05-23 08:18:00,
2013-05-23 04:23:00,70.4,63.2,29.67,SW,230,0.0,1.0,78,0.00,,,0.00,Wunderground v.1.15,2013-05-23 08:23:00,
2013-05-23 04:28:00,70.3,63.1,29.67,SW,230,0.0,1.0,78,0.00,,,0.00,Wunderground v.1.15,2013-05-23 08:28:00,
2013-05-23 04:33:00,70.2,63.0,29.66,SW,230,2.0,2.0,78,0.00,,,0.00,Wunderground v.1.15,2013-05-23 08:33:00,
2013-05-23 04:38:00,70.2,63.4,29.66,SW,230,0.0,2.0,79,0.00,,,0.00,Wunderground v.1.15,2013-05-23 08:38:00,
2013-05-23 04:43:00,70.0,63.2,29.66,SW,230,0.0,0.0,79,0.00,,,0.00,Wunderground v.1.15,2013-05-23 08:43:00,
2013-05-23 04:48:00,69.8,63.0,29.66,SW,230,0.0,1.0,79,0.00,,,0.00,Wunderground v.1.15,2013-05-23 08:48:00,
2013-05-23 04:53:00,69.6,63.2,29.66,SW,230,0.0,1.0,80,0.00,,,0.00,Wunderground v.1.15,2013-05-23 08:53:00,
2013-05-23 04:58:00,69.4,63.0,29.66,SW,230,1.0,2.0,80,0.00,,,0.00,Wunderground v.1.15,2013-05-23 08:58:00,
2013-05-23 05:03:00,69.2,63.1,29.66,SW,230,0.0,0.0,81,0.00,,,0.00,Wunderground v.1.15,2013-05-23 09:03:00,
2013-05-23 05:08:00,69.1,63.0,29.66,SW,230,0.0,1.0,81,0.00,,,0.00,Wunderground v.1.15,2013-05-23 09:08:00,
2013-05-23 05:13:00,68.9,63.2,29.66,SSW,194,1.0,1.0,82,0.00,,,0.00,Wunderground v.1.15,2013-05-23 09:13:00,
2013-05-23 05:18:00,68.7,63.0,29.67,SSW,194,0.0,1.0,82,0.00,,,0.00,Wunderground v.1.15,2013-05-23 09:18:00,
2013-05-23 05:23:00,68.6,62.9,29.67,SSW,194,0.0,1.0,82,0.00,,,0.00,Wunderground v.1.15,2013-05-23 09:23:00,
2013-05-23 05:28:00,68.6,63.2,29.67,SSW,194,0.0,1.0,83,0.00,,,0.00,Wunderground v.1.15,2013-05-23 09:28:00,
2013-05-23 05:33:00,68.6,63.2,29.67,WSW,248,0.0,3.0,83,0.00,,,0.00,Wunderground v.1.15,2013-05-23 09:33:00,
2013-05-23 05:38:00,68.6,63.2,29.67,SW,219,2.0,3.0,83,0.00,,,0.00,Wunderground v.1.15,2013-05-23 09:38:00,
2013-05-23 05:43:00,68.5,63.5,29.67,SW,219,0.0,1.0,84,0.00,,,0.00,Wunderground v.1.15,2013-05-23 09:43:00,
2013-05-23 05:48:00,68.4,63.4,29.67,SW,219,0.0,1.0,84,0.00,,,0.00,Wunderground v.1.15,2013-05-23 09:48:00,
2013-05-23 05:53:00,68.2,63.5,29.66,SW,219,0.0,0.0,85,0.00,,,0.00,Wunderground v.1.15,2013-05-23 09:53:00,
2013-05-23 05:58:00,68.0,63.7,29.67,SW,219,0.0,0.0,86,0.00,,,0.00,Wunderground v.1.15,2013-05-23 09:58:00,
2013-05-23 06:03:00,67.8,63.8,29.67,SW,219,0.0,1.0,87,0.00,,,0.00,Wunderground v.1.15,2013-05-23 10:03:00,
2013-05-23 06:08:00,67.6,63.9,29.67,SW,219,0.0,1.0,88,0.00,,,0.01,Wunderground v.1.15,2013-05-23 10:08:00,
2013-05-23 06:13:00,67.3,63.9,29.66,SW,219,0.0,1.0,89,0.00,,,0.01,Wunderground v.1.15,2013-05-23 10:13:00,
2013-05-23 06:18:00,67.0,64.0,29.67,SW,219,0.0,1.0,90,0.00,,,0.01,Wunderground v.1.15,2013-05-23 10:18:00,
2013-05-23 06:23:00,66.8,64.1,29.67,SW,219,0.0,1.0,91,0.00,,,0.01,Wunderground v.1.15,2013-05-23 10:23:00,
2013-05-23 06:28:00,66.6,64.2,29.67,SW,219,0.0,1.0,92,0.00,,,0.01,Wunderground v.1.15,2013-05-23 10:28:00,
2013-05-23 06:33:00,66.4,64.0,29.67,SW,219,0.0,0.0,92,0.00,,,0.01,Wunderground v.1.15,2013-05-23 10:33:00,
2013-05-23 06:38:00,66.2,63.8,29.68,SW,219,0.0,0.0,92,0.00,,,0.01,Wunderground v.1.15,2013-05-23 10:38:00,
2013-05-23 06:43:00,66.1,64.0,29.67,SW,219,0.0,0.0,93,0.00,,,0.01,Wunderground v.1.15,2013-05-23 10:43:00,
2013-05-23 06:48:00,66.1,64.0,29.68,SE,139,0.0,2.0,93,0.00,,,0.01,Wunderground v.1.15,2013-05-23 10:48:00,
2013-05-23 06:54:00,66.0,63.9,29.67,SE,139,0.0,0.0,93,0.00,,,0.01,Wunderground v.1.15,2013-05-23 10:54:00,
2013-05-23 06:59:00,66.0,63.9,29.67,South,188,0.0,2.0,93,0.00,,,0.01,Wunderground v.1.15,2013-05-23 10:59:00,
2013-05-23 07:04:00,66.1,64.0,29.67,South,175,0.0,3.0,93,0.00,,,0.01,Wunderground v.1.15,2013-05-23 11:04:00,
2013-05-23 07:09:00,66.2,64.1,29.67,South,175,0.0,3.0,93,0.00,,,0.01,Wunderground v.1.15,2013-05-23 11:09:00,
2013-05-23 07:14:00,66.2,64.4,29.68,South,175,1.0,3.0,94,0.00,,,0.01,Wunderground v.1.15,2013-05-23 11:14:00,
2013-05-23 07:19:00,66.3,64.2,29.68,South,174,0.0,3.0,93,0.00,,,0.01,Wunderground v.1.15,2013-05-23 11:19:00,
2013-05-23 07:24:00,66.3,64.5,29.68,WSW,237,2.0,3.0,94,0.00,,,0.01,Wunderground v.1.15,2013-05-23 11:24:00,
2013-05-23 07:29:00,66.4,64.3,29.68,SW,236,0.0,3.0,93,0.00,,,0.01,Wunderground v.1.15,2013-05-23 11:29:00,
2013-05-23 07:34:00,66.5,64.4,29.69,SSW,200,1.0,1.0,93,0.00,,,0.01,Wunderground v.1.15,2013-05-23 11:34:00,
2013-05-23 07:39:00,66.7,64.6,29.69,SSW,196,1.0,7.0,93,0.00,,,0.01,Wunderground v.1.15,2013-05-23 11:39:00,
2013-05-23 07:44:00,66.8,64.7,29.69,WSW,246,0.0,5.0,93,0.00,,,0.01,Wunderground v.1.15,2013-05-23 11:44:00,
2013-05-23 07:49:00,67.1,65.0,29.69,SSE,158,1.0,5.0,93,0.00,,,0.01,Wunderground v.1.15,2013-05-23 11:49:00,
2013-05-23 07:54:00,67.4,65.0,29.69,South,184,2.0,3.0,92,0.00,,,0.01,Wunderground v.1.15,2013-05-23 11:54:00,
2013-05-23 07:59:00,67.8,65.1,29.69,SSW,198,4.0,4.0,91,0.00,,,0.01,Wunderground v.1.15,2013-05-23 11:59:00,
2013-05-23 08:04:00,68.5,65.4,29.69,South,180,4.0,7.0,90,0.00,,,0.01,Wunderground v.1.15,2013-05-23 12:04:00,
2013-05-23 08:09:00,69.1,65.7,29.69,SSE,163,0.0,7.0,89,0.00,,,0.01,Wunderground v.1.15,2013-05-23 12:09:00,
2013-05-23 08:14:00,69.5,65.8,29.69,WSW,238,1.0,3.0,88,0.00,,,0.01,Wunderground v.1.15,2013-05-23 12:14:00,
2013-05-23 08:19:00,69.8,65.8,29.69,SSW,193,4.0,4.0,87,0.00,,,0.01,Wunderground v.1.15,2013-05-23 12:19:00,
2013-05-23 08:24:00,70.0,65.3,29.69,South,191,1.0,7.0,85,0.00,,,0.01,Wunderground v.1.15,2013-05-23 12:24:00,
2013-05-23 08:29:00,70.4,66.3,29.69,SW,234,2.0,8.0,87,0.00,,,0.01,Wunderground v.1.15,2013-05-23 12:29:00,
2013-05-23 08:34:00,70.7,66.0,29.69,SSW,195,1.0,7.0,85,0.00,,,0.01,Wunderground v.1.15,2013-05-23 12:34:00,
2013-05-23 08:40:00,70.9,65.8,29.69,West,261,7.0,7.0,84,0.00,,,0.01,Wunderground v.1.15,2013-05-23 12:40:00,
2013-05-23 08:45:00,71.0,65.9,29.69,South,179,5.0,7.0,84,0.00,,,0.01,Wunderground v.1.15,2013-05-23 12:45:00,
2013-05-23 08:50:00,71.0,65.2,29.69,WNW,302,5.0,7.0,82,0.00,,,0.01,Wunderground v.1.15,2013-05-23 12:50:00,
2013-05-23 08:55:00,71.1,65.7,29.69,SE,128,0.0,8.0,83,0.00,,,0.01,Wunderground v.1.15,2013-05-23 12:55:00,
2013-05-23 09:00:00,71.1,65.0,29.69,WSW,244,1.0,8.0,81,0.00,,,0.01,Wunderground v.1.15,2013-05-23 13:00:00,
2013-05-23 09:05:00,71.5,65.4,29.69,WSW,238,6.0,7.0,81,0.00,,,0.01,Wunderground v.1.15,2013-05-23 13:05:00,
2013-05-23 09:10:00,71.7,65.2,29.69,South,183,4.0,7.0,80,0.00,,,0.01,Wunderground v.1.15,2013-05-23 13:10:00,
2013-05-23 09:15:00,71.9,65.0,29.69,WSW,245,5.0,14.0,79,0.00,,,0.01,Wunderground v.1.15,2013-05-23 13:15:00,
2013-05-23 09:20:00,72.1,65.2,29.69,WSW,258,0.0,14.0,79,0.00,,,0.01,Wunderground v.1.15,2013-05-23 13:20:00,
2013-05-23 09:25:00,72.3,65.4,29.69,West,271,1.0,8.0,79,0.00,,,0.01,Wunderground v.1.15,2013-05-23 13:25:00,
2013-05-23 09:30:00,72.4,65.2,29.69,South,190,5.0,8.0,78,0.00,,,0.01,Wunderground v.1.15,2013-05-23 13:30:00,
2013-05-23 09:35:00,72.6,66.1,29.69,West,280,2.0,3.0,80,0.00,,,0.01,Wunderground v.1.15,2013-05-23 13:35:00,
2013-05-23 09:40:00,72.7,65.1,29.69,SSW,195,5.0,6.0,77,0.00,,,0.01,Wunderground v.1.15,2013-05-23 13:40:00,
2013-05-23 09:45:00,72.9,65.3,29.69,SSW,211,1.0,8.0,77,0.00,,,0.01,Wunderground v.1.15,2013-05-23 13:45:00,
2013-05-23 09:50:00,72.8,65.9,29.69,SSW,213,1.0,8.0,79,0.00,,,0.01,Wunderground v.1.15,2013-05-23 13:50:00,
2013-05-23 09:55:00,72.5,66.0,29.69,SW,236,2.0,10.0,80,0.00,,,0.01,Wunderground v.1.15,2013-05-23 13:55:00,
2013-05-23 10:00:00,72.3,65.1,29.69,West,281,2.0,10.0,78,0.00,,,0.01,Wunderground v.1.15,2013-05-23 14:00:00,
2013-05-23 10:05:00,72.2,65.3,29.70,WNW,288,0.0,5.0,79,0.00,,,0.01,Wunderground v.1.15,2013-05-23 14:05:00,
2013-05-23 10:10:00,72.6,65.0,29.69,WSW,253,6.0,6.0,77,0.00,,,0.01,Wunderground v.1.15,2013-05-23 14:10:00,
2013-05-23 10:15:00,72.9,66.0,29.69,SSW,194,1.0,6.0,79,0.00,,,0.01,Wunderground v.1.15,2013-05-23 14:15:00,
2013-05-23 10:20:00,73.2,65.6,29.70,WSW,255,4.0,4.0,77,0.00,,,0.01,Wunderground v.1.15,2013-05-23 14:20:00,
2013-05-23 10:25:00,73.2,65.2,29.70,WNW,292,6.0,8.0,76,0.00,,,0.01,Wunderground v.1.15,2013-05-23 14:25:00,
2013-05-23 10:30:00,73.1,64.7,29.70,SSW,208,4.0,4.0,75,0.00,,,0.01,Wunderground v.1.15,2013-05-23 14:30:00,
2013-05-23 10:35:00,73.2,65.2,29.69,West,277,3.0,9.0,76,0.00,,,0.01,Wunderground v.1.15,2013-05-23 14:35:00,
2013-05-23 10:40:00,73.3,64.9,29.69,West,277,8.0,8.0,75,0.00,,,0.01,Wunderground v.1.15,2013-05-23 14:40:00,
2013-05-23 10:45:00,73.0,64.2,29.70,SW,232,3.0,11.0,74,0.00,,,0.01,Wunderground v.1.15,2013-05-23 14:45:00,
2013-05-23 10:50:00,72.8,64.8,29.70,SSE,164,3.0,4.0,76,0.00,,,0.01,Wunderground v.1.15,2013-05-23 14:50:00,
2013-05-23 10:55:00,72.4,64.4,29.70,WSW,257,5.0,8.0,76,0.00,,,0.01,Wunderground v.1.15,2013-05-23 14:55:00,
2013-05-23 11:00:00,71.7,63.7,29.70,South,184,3.0,4.0,76,0.00,,,0.01,Wunderground v.1.15,2013-05-23 15:00:00,
2013-05-23 11:05:00,70.9,64.8,29.71,West,275,4.0,6.0,81,0.00,,,0.02,Wunderground v.1.15,2013-05-23 15:05:00,
2013-05-23 11:10:00,69.8,63.7,29.71,West,264,5.0,7.0,81,0.00,,,0.02,Wunderground v.1.15,2013-05-23 15:10:00,
2013-05-23 11:15:00,69.0,63.3,29.71,SSW,207,2.0,10.0,82,0.00,,,0.02,Wunderground v.1.15,2013-05-23 15:15:00,
2013-05-23 11:20:00,68.4,62.7,29.71,SW,219,2.0,4.0,82,0.00,,,0.02,Wunderground v.1.15,2013-05-23 15:20:00,
2013-05-23 11:25:00,68.3,63.3,29.71,South,178,0.0,4.0,84,0.00,,,0.02,Wunderground v.1.15,2013-05-23 15:25:00,
2013-05-23 11:30:00,68.5,63.5,29.71,WSW,250,1.0,3.0,84,0.00,,,0.02,Wunderground v.1.15,2013-05-23 15:30:00,
2013-05-23 11:35:00,69.0,63.6,29.70,SW,217,3.0,8.0,83,0.00,,,0.02,Wunderground v.1.15,2013-05-23 15:35:00,
2013-05-23 11:40:00,69.5,63.1,29.70,SW,230,3.0,4.0,80,0.00,,,0.02,Wunderground v.1.15,2013-05-23 15:40:00,
2013-05-23 11:45:00,70.2,63.7,29.70,WNW,286,3.0,7.0,80,0.00,,,0.02,Wunderground v.1.15,2013-05-23 15:45:00,
2013-05-23 11:50:00,71.0,64.9,29.70,West,267,5.0,5.0,81,0.00,,,0.02,Wunderground v.1.15,2013-05-23 15:50:00,
2013-05-23 11:55:00,71.6,65.5,29.70,West,267,3.0,9.0,81,0.00,,,0.02,Wunderground v.1.15,2013-05-23 15:55:00,
2013-05-23 12:00:00,72.5,64.1,29.70,NW,313,7.0,7.0,75,0.00,,,0.02,Wunderground v.1.15,2013-05-23 16:00:00,
2013-05-23 12:05:00,73.2,64.0,29.70,WNW,286,2.0,8.0,73,0.00,,,0.02,Wunderground v.1.15,2013-05-23 16:05:00,
2013-05-23 12:11:00,73.8,64.2,29.70,West,277,1.0,4.0,72,0.00,,,0.02,Wunderground v.1.15,2013-05-23 16:11:00,
2013-05-23 12:16:00,74.2,64.6,29.70,SW,231,4.0,8.0,72,0.00,,,0.02,Wunderground v.1.15,2013-05-23 16:16:00,
2013-05-23 12:21:00,74.9,64.0,29.70,SSW,204,2.0,4.0,69,0.00,,,0.02,Wunderground v.1.15,2013-05-23 16:21:00,
2013-05-23 12:26:00,75.0,62.0,29.70,SSW,200,5.0,13.0,64,0.00,,,0.02,Wunderground v.1.15,2013-05-23 16:26:00,
2013-05-23 12:31:00,75.0,61.1,29.70,SSW,192,7.0,9.0,62,0.00,,,0.02,Wunderground v.1.15,2013-05-23 16:31:00,
2013-05-23 12:36:00,75.3,62.7,29.70,WNW,296,2.0,9.0,65,0.00,,,0.02,Wunderground v.1.15,2013-05-23 16:36:00,
2013-05-23 12:41:00,75.2,62.6,29.70,West,261,3.0,5.0,65,0.00,,,0.02,Wunderground v.1.15,2013-05-23 16:41:00,
2013-05-23 12:46:00,75.0,61.5,29.70,SW,233,2.0,11.0,63,0.00,,,0.02,Wunderground v.1.15,2013-05-23 16:46:00,
2013-05-23 12:51:00,74.9,61.9,29.70,SW,228,3.0,8.0,64,0.00,,,0.02,Wunderground v.1.15,2013-05-23 16:51:00,
2013-05-23 12:56:00,74.8,62.7,29.70,South,170,1.0,8.0,66,0.00,,,0.02,Wunderground v.1.15,2013-05-23 16:56:00,
2013-05-23 13:01:00,75.2,62.2,29.69,WSW,253,7.0,7.0,64,0.00,,,0.02,Wunderground v.1.15,2013-05-23 17:01:00,
2013-05-23 13:06:00,75.2,63.5,29.70,WSW,252,4.0,7.0,67,0.00,,,0.02,Wunderground v.1.15,2013-05-23 17:06:00,
2013-05-23 13:11:00,75.1,63.8,29.69,SSW,204,1.0,3.0,68,0.00,,,0.02,Wunderground v.1.15,2013-05-23 17:11:00,
2013-05-23 13:16:00,75.5,63.8,29.69,SW,219,1.0,7.0,67,0.00,,,0.02,Wunderground v.1.15,2013-05-23 17:16:00,
2013-05-23 13:21:00,75.6,62.1,29.69,West,269,3.0,5.0,63,0.00,,,0.02,Wunderground v.1.15,2013-05-23 17:21:00,
2013-05-23 13:26:00,75.6,62.6,29.69,WNW,286,3.0,10.0,64,0.00,,,0.02,Wunderground v.1.15,2013-05-23 17:26:00,
2013-05-23 13:31:00,75.7,64.0,29.69,SSW,213,1.0,3.0,67,0.00,,,0.02,Wunderground v.1.15,2013-05-23 17:31:00,
2013-05-23 13:36:00,75.7,61.8,29.68,South,169,6.0,8.0,62,0.00,,,0.02,Wunderground v.1.15,2013-05-23 17:36:00,
2013-05-23 13:41:00,75.5,62.5,29.68,West,259,6.0,8.0,64,0.00,,,0.02,Wunderground v.1.15,2013-05-23 17:41:00,
2013-05-23 13:46:00,75.4,60.5,29.68,South,171,8.0,10.0,60,0.00,,,0.02,Wunderground v.1.15,2013-05-23 17:46:00,
2013-05-23 13:51:00,75.5,60.6,29.68,SSW,200,1.0,6.0,60,0.00,,,0.02,Wunderground v.1.15,2013-05-23 17:51:00,
2013-05-23 13:56:00,75.6,61.7,29.68,SW,232,0.0,13.0,62,0.00,,,0.02,Wunderground v.1.15,2013-05-23 17:56:00,
2013-05-23 14:01:00,75.7,59.9,29.68,West,268,1.0,8.0,58,0.00,,,0.02,Wunderground v.1.15,2013-05-23 18:01:00,
2013-05-23 14:06:00,75.4,61.0,29.68,NNW,342,5.0,13.0,61,0.00,,,0.02,Wunderground v.1.15,2013-05-23 18:06:00,
2013-05-23 14:11:00,73.4,60.9,29.68,NNE,21,8.0,8.0,65,0.00,,,0.02,Wunderground v.1.15,2013-05-23 18:11:00,
2013-05-23 14:16:00,71.5,60.4,29.68,North,5,11.0,13.0,68,0.00,,,0.02,Wunderground v.1.15,2013-05-23 18:16:00,
2013-05-23 14:21:00,70.6,60.3,29.68,North,355,3.0,7.0,70,0.00,,,0.02,Wunderground v.1.15,2013-05-23 18:21:00,
2013-05-23 14:26:00,70.5,61.0,29.68,North,5,5.0,8.0,72,0.00,,,0.02,Wunderground v.1.15,2013-05-23 18:26:00,
2013-05-23 14:31:00,71.3,61.8,29.68,NNE,25,4.0,7.0,72,0.00,,,0.02,Wunderground v.1.15,2013-05-23 18:31:00,
2013-05-23 14:36:00,72.2,61.9,29.68,North,10,6.0,9.0,70,0.00,,,0.02,Wunderground v.1.15,2013-05-23 18:36:00,
2013-05-23 14:41:00,73.2,62.0,29.68,NNE,13,3.0,7.0,68,0.00,,,0.02,Wunderground v.1.15,2013-05-23 18:41:00,
2013-05-23 14:46:00,73.9,62.2,29.67,North,9,6.0,9.0,67,0.00,,,0.02,Wunderground v.1.15,2013-05-23 18:46:00,
2013-05-23 14:51:00,74.4,62.3,29.67,North,9,0.0,4.0,66,0.00,,,0.02,Wunderground v.1.15,2013-05-23 18:51:00,
2013-05-23 14:56:00,74.6,62.5,29.67,NNE,15,4.0,5.0,66,0.00,,,0.02,Wunderground v.1.15,2013-05-23 18:56:00,
2013-05-23 15:01:00,74.8,62.2,29.67,NNE,12,3.0,6.0,65,0.00,,,0.02,Wunderground v.1.15,2013-05-23 19:01:00,
2013-05-23 15:06:00,74.7,62.6,29.67,NNE,12,0.0,6.0,66,0.00,,,0.02,Wunderground v.1.15,2013-05-23 19:06:00,
2013-05-23 15:11:00,74.7,62.1,29.67,North,9,3.0,3.0,65,0.00,,,0.02,Wunderground v.1.15,2013-05-23 19:11:00,
2013-05-23 15:17:00,74.3,62.6,29.67,NW,312,3.0,5.0,67,0.00,,,0.02,Wunderground v.1.15,2013-05-23 19:17:00,
2013-05-23 15:22:00,74.6,62.5,29.67,NW,325,2.0,7.0,66,0.00,,,0.02,Wunderground v.1.15,2013-05-23 19:22:00,
2013-05-23 15:27:00,75.0,62.9,29.67,WSW,245,3.0,14.0,66,0.00,,,0.02,Wunderground v.1.15,2013-05-23 19:27:00,
2013-05-23 15:32:00,75.4,63.2,29.67,NNW,341,2.0,6.0,66,0.00,,,0.02,Wunderground v.1.15,2013-05-23 19:32:00,
2013-05-23 15:37:00,75.6,61.7,29.68,North,5,7.0,9.0,62,0.00,,,0.02,Wunderground v.1.15,2013-05-23 19:37:00,
2013-05-23 15:42:00,74.1,60.2,29.68,West,280,4.0,8.0,62,0.00,,,0.02,Wunderground v.1.15,2013-05-23 19:42:00,
2013-05-23 15:47:00,72.8,61.2,29.69,ENE,59,3.0,8.0,67,0.00,,,0.02,Wunderground v.1.15,2013-05-23 19:47:00,
2013-05-23 15:52:00,73.2,61.6,29.68,North,351,5.0,6.0,67,0.00,,,0.02,Wunderground v.1.15,2013-05-23 19:52:00,
2013-05-23 15:57:00,73.4,61.3,29.69,NNE,18,6.0,14.0,66,0.00,,,0.02,Wunderground v.1.15,2013-05-23 19:57:00,
2013-05-23 16:02:00,72.1,60.5,29.69,North,9,10.0,15.0,67,0.00,,,0.02,Wunderground v.1.15,2013-05-23 20:02:00,
2013-05-23 16:07:00,71.0,60.3,29.70,North,355,6.0,16.0,69,0.00,,,0.02,Wunderground v.1.15,2013-05-23 20:07:00,
2013-05-23 16:12:00,70.1,60.3,29.69,WNW,292,4.0,6.0,71,0.00,,,0.02,Wunderground v.1.15,2013-05-23 20:12:00,
2013-05-23 16:17:00,69.6,60.6,29.69,NNE,19,3.0,7.0,73,0.00,,,0.02,Wunderground v.1.15,2013-05-23 20:17:00,
2013-05-23 16:22:00,69.1,60.5,29.69,North,5,1.0,5.0,74,0.00,,,0.02,Wunderground v.1.15,2013-05-23 20:22:00,
2013-05-23 16:27:00,68.7,60.5,29.69,WSW,257,3.0,10.0,75,0.00,,,0.02,Wunderground v.1.15,2013-05-23 20:27:00,
2013-05-23 16:32:00,68.6,60.7,29.69,North,355,3.0,6.0,76,0.00,,,0.02,Wunderground v.1.15,2013-05-23 20:32:00,
2013-05-23 16:37:00,68.3,60.4,29.68,NNE,29,4.0,9.0,76,0.00,,,0.02,Wunderground v.1.15,2013-05-23 20:37:00,
2013-05-23 16:42:00,68.1,60.6,29.69,North,5,7.0,7.0,77,0.00,,,0.02,Wunderground v.1.15,2013-05-23 20:42:00,
2013-05-23 16:47:00,68.5,60.6,29.68,NW,317,4.0,7.0,76,0.00,,,0.02,Wunderground v.1.15,2013-05-23 20:47:00,
2013-05-23 16:52:00,68.9,60.6,29.69,NW,319,4.0,10.0,75,0.00,,,0.02,Wunderground v.1.15,2013-05-23 20:52:00,
2013-05-23 16:57:00,68.8,60.9,29.69,North,355,1.0,10.0,76,0.00,,,0.02,Wunderground v.1.15,2013-05-23 20:57:00,
2013-05-23 17:02:00,68.6,60.4,29.69,North,9,1.0,6.0,75,0.00,,,0.02,Wunderground v.1.15,2013-05-23 21:02:00,
2013-05-23 17:07:00,68.8,60.9,29.69,NNE,15,5.0,6.0,76,0.00,,,0.02,Wunderground v.1.15,2013-05-23 21:07:00,
2013-05-23 17:12:00,69.2,60.9,29.69,NNW,345,2.0,6.0,75,0.00,,,0.02,Wunderground v.1.15,2013-05-23 21:12:00,
2013-05-23 17:17:00,70.1,61.4,29.69,NNW,335,2.0,8.0,74,0.00,,,0.02,Wunderground v.1.15,2013-05-23 21:17:00,
2013-05-23 17:22:00,70.4,60.9,29.69,West,271,5.0,11.0,72,0.00,,,0.02,Wunderground v.1.15,2013-05-23 21:22:00,
2013-05-23 17:27:00,70.0,60.9,29.69,NW,323,4.0,11.0,73,0.00,,,0.02,Wunderground v.1.15,2013-05-23 21:27:00,
2013-05-23 17:32:00,68.9,60.3,29.69,North,11,3.0,7.0,74,0.00,,,0.02,Wunderground v.1.15,2013-05-23 21:32:00,
2013-05-23 17:37:00,68.0,59.4,29.69,NNW,329,9.0,13.0,74,0.00,,,0.02,Wunderground v.1.15,2013-05-23 21:37:00,
2013-05-23 17:42:00,66.6,58.8,29.70,WNW,302,6.0,9.0,76,0.00,,,0.02,Wunderground v.1.15,2013-05-23 21:42:00,
2013-05-23 17:47:00,65.1,57.7,29.70,NW,307,7.0,14.0,77,0.00,,,0.02,Wunderground v.1.15,2013-05-23 21:47:00,
2013-05-23 17:52:00,63.5,57.2,29.70,North,360,7.0,11.0,80,0.00,,,0.02,Wunderground v.1.15,2013-05-23 21:52:00,
2013-05-23 17:57:00,62.4,56.8,29.71,West,271,5.0,11.0,82,0.00,,,0.02,Wunderground v.1.15,2013-05-23 21:57:00,
2013-05-23 18:03:00,61.6,56.4,29.70,NW,311,1.0,10.0,83,0.00,,,0.02,Wunderground v.1.15,2013-05-23 22:03:00,
2013-05-23 18:08:00,61.3,56.4,29.71,NNE,28,4.0,11.0,84,0.00,,,0.02,Wunderground v.1.15,2013-05-23 22:08:00,
2013-05-23 18:13:00,61.1,55.9,29.71,East,92,2.0,11.0,83,0.00,,,0.02,Wunderground v.1.15,2013-05-23 22:13:00,
2013-05-23 18:18:00,60.8,55.9,29.71,NE,50,6.0,11.0,84,0.00,,,0.02,Wunderground v.1.15,2013-05-23 22:18:00,
2013-05-23 18:23:00,60.5,55.6,29.72,NW,321,5.0,9.0,84,0.00,,,0.02,Wunderground v.1.15,2013-05-23 22:23:00,
2013-05-23 18:28:00,60.4,55.5,29.71,WSW,256,5.0,9.0,84,0.00,,,0.02,Wunderground v.1.15,2013-05-23 22:28:00,
2013-05-23 18:33:00,60.0,54.8,29.71,WSW,257,2.0,13.0,83,0.00,,,0.02,Wunderground v.1.15,2013-05-23 22:33:00,
2013-05-23 18:38:00,59.8,55.0,29.72,WSW,240,5.0,13.0,84,0.00,,,0.02,Wunderground v.1.15,2013-05-23 22:38:00,
2013-05-23 18:43:00,59.5,54.7,29.72,West,275,6.0,6.0,84,0.00,,,0.02,Wunderground v.1.15,2013-05-23 22:43:00,
2013-05-23 18:48:00,59.0,54.2,29.72,WNW,286,3.0,10.0,84,0.00,,,0.02,Wunderground v.1.15,2013-05-23 22:48:00,
2013-05-23 18:53:00,58.7,54.2,29.72,NNW,348,5.0,8.0,85,0.00,,,0.02,Wunderground v.1.15,2013-05-23 22:53:00,
2013-05-23 18:58:00,58.5,54.0,29.72,NW,306,1.0,8.0,85,0.00,,,0.02,Wunderground v.1.15,2013-05-23 22:58:00,
2013-05-23 19:03:00,58.4,53.9,29.72,NW,307,3.0,6.0,85,0.00,,,0.02,Wunderground v.1.15,2013-05-23 23:03:00,
2013-05-23 19:08:00,58.2,53.7,29.73,NNW,343,5.0,7.0,85,0.00,,,0.02,Wunderground v.1.15,2013-05-23 23:08:00,
2013-05-23 19:13:00,58.1,53.9,29.73,NNW,338,5.0,9.0,86,0.00,,,0.02,Wunderground v.1.15,2013-05-23 23:13:00,
2013-05-23 19:18:00,58.1,53.9,29.73,WSW,250,3.0,9.0,86,0.00,,,0.02,Wunderground v.1.15,2013-05-23 23:18:00,
2013-05-23 19:23:00,57.8,53.3,29.73,NW,311,5.0,12.0,85,0.00,,,0.02,Wunderground v.1.15,2013-05-23 23:23:00,
2013-05-23 19:28:00,57.7,53.2,29.73,West,271,6.0,12.0,85,0.00,,,0.02,Wunderground v.1.15,2013-05-23 23:28:00,
2013-05-23 19:33:00,57.6,53.4,29.74,North,5,3.0,9.0,86,0.00,,,0.02,Wunderground v.1.15,2013-05-23 23:33:00,
2013-05-23 19:38:00,57.3,53.5,29.75,West,281,4.0,12.0,87,0.00,,,0.02,Wunderground v.1.15,2013-05-23 23:38:00,
2013-05-23 19:43:00,57.0,53.5,29.75,NNW,346,2.0,11.0,88,0.00,,,0.02,Wunderground v.1.15,2013-05-23 23:43:00,
2013-05-23 19:49:00,56.9,53.4,29.76,NE,38,6.0,11.0,88,0.00,,,0.02,Wunderground v.1.15,2013-05-23 23:49:00,
2013-05-23 19:54:00,56.7,53.5,29.75,NNW,337,3.0,8.0,89,0.00,,,0.02,Wunderground v.1.15,2013-05-23 23:54:00,
2013-05-23 19:59:00,56.5,53.6,29.75,NNE,28,5.0,8.0,90,0.00,,,0.03,Wunderground v.1.15,2013-05-23 23:59:00,
2013-05-23 20:04:00,56.2,53.6,29.75,SW,235,4.0,11.0,91,0.00,,,0.03,Wunderground v.1.15,2013-05-24 00:04:00,
2013-05-23 20:09:00,55.8,53.2,29.76,North,9,3.0,15.0,91,0.00,,,0.03,Wunderground v.1.15,2013-05-24 00:09:00,
2013-05-23 20:14:00,55.5,53.2,29.76,North,5,4.0,9.0,92,0.00,,,0.03,Wunderground v.1.15,2013-05-24 00:14:00,
2013-05-23 20:19:00,55.2,52.9,29.77,North,5,3.0,9.0,92,0.00,,,0.03,Wunderground v.1.15,2013-05-24 00:19:00,
2013-05-23 20:24:00,55.0,52.7,29.77,NNE,25,6.0,9.0,92,0.00,,,0.03,Wunderground v.1.15,2013-05-24 00:24:00,
2013-05-23 20:29:00,54.4,52.1,29.77,North,350,1.0,9.0,92,0.00,,,0.03,Wunderground v.1.15,2013-05-24 00:29:00,
2013-05-23 20:34:00,54.2,51.9,29.78,North,355,5.0,7.0,92,0.00,,,0.03,Wunderground v.1.15,2013-05-24 00:34:00,
2013-05-23 20:39:00,53.8,51.8,29.78,NNE,28,3.0,9.0,93,0.00,,,0.03,Wunderground v.1.15,2013-05-24 00:39:00,
2013-05-23 20:44:00,53.6,51.6,29.78,North,360,3.0,6.0,93,0.00,,,0.04,Wunderground v.1.15,2013-05-24 00:44:00,
2013-05-23 20:49:00,53.3,51.3,29.79,North,10,6.0,8.0,93,0.00,,,0.04,Wunderground v.1.15,2013-05-24 00:49:00,
2013-05-23 20:54:00,53.0,51.0,29.79,North,5,5.0,7.0,93,0.00,,,0.04,Wunderground v.1.15,2013-05-24 00:54:00,
2013-05-23 20:59:00,52.7,50.7,29.79,NNE,19,2.0,7.0,93,0.00,,,0.04,Wunderground v.1.15,2013-05-24 00:59:00,
2013-05-23 21:04:00,52.5,50.5,29.79,NNW,346,5.0,9.0,93,0.00,,,0.05,Wunderground v.1.15,2013-05-24 01:04:00,
2013-05-23 21:09:00,52.2,50.2,29.78,North,5,7.0,11.0,93,0.00,,,0.05,Wunderground v.1.15,2013-05-24 01:09:00,
2013-05-23 21:14:00,52.1,50.1,29.78,NNE,16,3.0,9.0,93,0.00,,,0.05,Wunderground v.1.15,2013-05-24 01:14:00,
2013-05-23 21:20:00,51.9,49.9,29.79,NNE,21,5.0,5.0,93,0.00,,,0.05,Wunderground v.1.15,2013-05-24 01:20:00,
2013-05-23 21:24:00,51.7,49.7,29.79,NNE,31,3.0,9.0,93,0.00,,,0.05,Wunderground v.1.15,2013-05-24 01:24:00,
2013-05-23 21:29:00,51.6,49.9,29.79,North,9,3.0,3.0,94,0.00,,,0.05,Wunderground v.1.15,2013-05-24 01:29:00,
2013-05-23 21:34:00,51.4,49.4,29.80,North,5,7.0,8.0,93,0.00,,,0.05,Wunderground v.1.15,2013-05-24 01:34:00,
2013-05-23 21:40:00,51.2,49.5,29.80,North,10,3.0,5.0,94,0.00,,,0.05,Wunderground v.1.15,2013-05-24 01:40:00,
2013-05-23 21:45:00,51.0,49.3,29.81,NNW,338,6.0,12.0,94,0.00,,,0.05,Wunderground v.1.15,2013-05-24 01:45:00,
2013-05-23 21:50:00,50.6,48.9,29.81,North,9,8.0,12.0,94,0.00,,,0.05,Wunderground v.1.15,2013-05-24 01:50:00,
2013-05-23 21:55:00,50.3,48.6,29.81,NE,41,6.0,12.0,94,0.00,,,0.05,Wunderground v.1.15,2013-05-24 01:55:00,
2013-05-23 22:00:00,49.8,48.1,29.82,NNE,14,6.0,9.0,94,0.00,,,0.06,Wunderground v.1.15,2013-05-24 02:00:00,
2013-05-23 22:05:00,49.5,47.8,29.82,North,360,5.0,12.0,94,0.00,,,0.06,Wunderground v.1.15,2013-05-24 02:05:00,
2013-05-23 22:10:00,49.2,47.8,29.82,North,11,7.0,13.0,95,0.00,,,0.06,Wunderground v.1.15,2013-05-24 02:10:00,
2013-05-23 22:15:00,49.0,47.3,29.82,NW,321,5.0,14.0,94,0.00,,,0.06,Wunderground v.1.15,2013-05-24 02:15:00,
2013-05-23 22:20:00,48.8,47.4,29.82,ENE,62,3.0,8.0,95,0.00,,,0.06,Wunderground v.1.15,2013-05-24 02:20:00,
2013-05-23 22:25:00,48.6,47.2,29.82,NNE,17,6.0,12.0,95,0.00,,,0.07,Wunderground v.1.15,2013-05-24 02:25:00,
2013-05-23 22:30:00,48.5,47.1,29.82,North,5,8.0,9.0,95,0.00,,,0.07,Wunderground v.1.15,2013-05-24 02:30:00,
2013-05-23 22:35:00,48.3,46.9,29.83,NNE,23,6.0,16.0,95,0.00,,,0.07,Wunderground v.1.15,2013-05-24 02:35:00,
2013-05-23 22:40:00,48.1,46.7,29.83,NE,37,8.0,13.0,95,0.00,,,0.07,Wunderground v.1.15,2013-05-24 02:40:00,
2013-05-23 22:45:00,47.9,46.5,29.83,North,5,7.0,16.0,95,0.00,,,0.07,Wunderground v.1.15,2013-05-24 02:45:00,
2013-05-23 22:50:00,47.8,46.4,29.83,North,9,14.0,18.0,95,0.00,,,0.08,Wunderground v.1.15,2013-05-24 02:50:00,
2013-05-23 22:55:00,47.7,46.3,29.83,North,360,6.0,18.0,95,0.00,,,0.08,Wunderground v.1.15,2013-05-24 02:55:00,
2013-05-23 23:00:00,47.7,46.3,29.83,NNE,16,6.0,7.0,95,0.00,,,0.08,Wunderground v.1.15,2013-05-24 03:00:00,
2013-05-23 23:05:00,47.5,46.1,29.83,North,5,7.0,12.0,95,0.00,,,0.08,Wunderground v.1.15,2013-05-24 03:05:00,
2013-05-23 23:10:00,47.4,46.0,29.84,NNE,25,5.0,13.0,95,0.00,,,0.08,Wunderground v.1.15,2013-05-24 03:10:00,
2013-05-23 23:15:00,47.2,45.8,29.84,NE,51,3.0,14.0,95,0.00,,,0.08,Wunderground v.1.15,2013-05-24 03:15:00,
2013-05-23 23:20:00,47.0,45.6,29.84,NNE,25,6.0,13.0,95,0.00,,,0.08,Wunderground v.1.15,2013-05-24 03:20:00,
2013-05-23 23:25:00,46.9,45.5,29.85,NW,319,4.0,14.0,95,0.00,,,0.08,Wunderground v.1.15,2013-05-24 03:25:00,
2013-05-23 23:30:00,46.8,45.4,29.84,North,360,3.0,7.0,95,0.00,,,0.08,Wunderground v.1.15,2013-05-24 03:30:00,
2013-05-23 23:35:00,46.7,45.3,29.85,NNE,19,5.0,17.0,95,0.00,,,0.08,Wunderground v.1.15,2013-05-24 03:35:00,
2013-05-23 23:40:00,46.6,45.0,29.85,North,5,7.0,8.0,94,0.00,,,0.08,Wunderground v.1.15,2013-05-24 03:40:00,
2013-05-23 23:45:00,46.4,44.8,29.85,North,5,4.0,12.0,94,0.00,,,0.08,Wunderground v.1.15,2013-05-24 03:45:00,
2013-05-23 23:50:00,46.1,44.5,29.86,North,355,2.0,11.0,94,0.00,,,0.08,Wunderground v.1.15,2013-05-24 03:50:00,
2013-05-23 23:55:00,45.9,44.3,29.86,North,10,8.0,14.0,94,0.00,,,0.09,Wunderground v.1.15,2013-05-24 03:55:00,